sensor_id;sensor_type;location;lat;lon;timestamp;P1;durP1;ratioP1;P2;durP2;ratioP2
45274;SDS011;31019;43.780;25.948;2023-04-15T00:01:37;53.97;;;49.90;;
45274;SDS011;31019;43.780;25.948;2023-04-15T00:04:05;48.53;;;45.30;;
45274;SDS011;31019;43.780;25.948;2023-04-15T00:06:33;64.10;;;59.15;;
45274;SDS011;31019;43.780;25.948;2023-04-15T00:09:02;58.30;;;54.20;;
45274;SDS011;31019;43.780;25.948;2023-04-15T00:11:29;49.20;;;45.90;;
45274;SDS011;31019;43.780;25.948;2023-04-15T00:13:56;48.35;;;44.83;;
45274;SDS011;31019;43.780;25.948;2023-04-15T00:16:24;46.10;;;42.88;;
45274;SDS011;31019;43.780;25.948;2023-04-15T00:18:53;48.15;;;44.55;;
45274;SDS011;31019;43.780;25.948;2023-04-15T00:21:22;55.15;;;52.13;;
45274;SDS011;31019;43.780;25.948;2023-04-15T00:23:49;48.50;;;45.55;;
45274;SDS011;31019;43.780;25.948;2023-04-15T00:26:18;57.45;;;52.60;;
45274;SDS011;31019;43.780;25.948;2023-04-15T00:28:44;47.50;;;44.47;;
45274;SDS011;31019;43.780;25.948;2023-04-15T00:31:11;64.75;;;60.90;;
45274;SDS011;31019;43.780;25.948;2023-04-15T00:33:39;48.58;;;45.45;;
45274;SDS011;31019;43.780;25.948;2023-04-15T00:36:06;50.42;;;47.33;;
45274;SDS011;31019;43.780;25.948;2023-04-15T00:38:36;45.47;;;42.33;;
45274;SDS011;31019;43.780;25.948;2023-04-15T00:41:03;42.08;;;39.17;;
45274;SDS011;31019;43.780;25.948;2023-04-15T00:43:30;49.97;;;46.78;;
45274;SDS011;31019;43.780;25.948;2023-04-15T00:45:57;45.00;;;42.20;;
45274;SDS011;31019;43.780;25.948;2023-04-15T00:48:26;43.80;;;40.78;;
45274;SDS011;31019;43.780;25.948;2023-04-15T00:50:53;49.00;;;45.58;;
45274;SDS011;31019;43.780;25.948;2023-04-15T00:53:20;46.22;;;42.80;;
45274;SDS011;31019;43.780;25.948;2023-04-15T00:55:49;44.40;;;41.40;;
45274;SDS011;31019;43.780;25.948;2023-04-15T00:58:16;51.75;;;48.35;;
45274;SDS011;31019;43.780;25.948;2023-04-15T01:00:43;54.00;;;50.40;;
45274;SDS011;31019;43.780;25.948;2023-04-15T01:03:12;50.67;;;47.38;;
45274;SDS011;31019;43.780;25.948;2023-04-15T01:05:39;47.10;;;44.03;;
45274;SDS011;31019;43.780;25.948;2023-04-15T01:08:06;49.90;;;46.63;;
45274;SDS011;31019;43.780;25.948;2023-04-15T01:10:33;49.75;;;46.50;;
45274;SDS011;31019;43.780;25.948;2023-04-15T01:13:02;52.78;;;49.55;;
45274;SDS011;31019;43.780;25.948;2023-04-15T01:15:29;49.63;;;46.53;;
45274;SDS011;31019;43.780;25.948;2023-04-15T01:17:56;51.38;;;48.38;;
45274;SDS011;31019;43.780;25.948;2023-04-15T01:20:25;52.08;;;48.53;;
45274;SDS011;31019;43.780;25.948;2023-04-15T01:22:55;51.60;;;47.55;;
45274;SDS011;31019;43.780;25.948;2023-04-15T01:25:27;53.95;;;50.00;;
45274;SDS011;31019;43.780;25.948;2023-04-15T01:27:57;53.05;;;48.95;;
45274;SDS011;31019;43.780;25.948;2023-04-15T01:30:24;48.47;;;44.45;;
45274;SDS011;31019;43.780;25.948;2023-04-15T01:32:54;48.15;;;44.35;;
45274;SDS011;31019;43.780;25.948;2023-04-15T01:35:21;49.75;;;45.50;;
45274;SDS011;31019;43.780;25.948;2023-04-15T01:37:49;54.20;;;49.70;;
45274;SDS011;31019;43.780;25.948;2023-04-15T01:40:16;51.35;;;47.15;;
45274;SDS011;31019;43.780;25.948;2023-04-15T01:42:44;53.55;;;49.08;;
45274;SDS011;31019;43.780;25.948;2023-04-15T01:45:11;56.55;;;51.65;;
45274;SDS011;31019;43.780;25.948;2023-04-15T01:47:38;57.85;;;52.60;;
45274;SDS011;31019;43.780;25.948;2023-04-15T01:50:05;59.05;;;54.65;;
45274;SDS011;31019;43.780;25.948;2023-04-15T01:52:33;54.33;;;49.92;;
45274;SDS011;31019;43.780;25.948;2023-04-15T01:55:00;55.20;;;50.60;;
45274;SDS011;31019;43.780;25.948;2023-04-15T01:57:26;60.60;;;55.50;;
45274;SDS011;31019;43.780;25.948;2023-04-15T01:59:56;77.57;;;71.57;;
45274;SDS011;31019;43.780;25.948;2023-04-15T02:02:23;74.85;;;68.72;;
45274;SDS011;31019;43.780;25.948;2023-04-15T02:04:50;78.00;;;71.53;;
45274;SDS011;31019;43.780;25.948;2023-04-15T02:07:17;66.43;;;60.40;;
45274;SDS011;31019;43.780;25.948;2023-04-15T02:09:44;72.18;;;65.75;;
45274;SDS011;31019;43.780;25.948;2023-04-15T02:12:11;82.00;;;73.85;;
45274;SDS011;31019;43.780;25.948;2023-04-15T02:14:38;70.50;;;64.35;;
45274;SDS011;31019;43.780;25.948;2023-04-15T02:17:07;68.03;;;62.13;;
45274;SDS011;31019;43.780;25.948;2023-04-15T02:19:34;69.05;;;63.05;;
45274;SDS011;31019;43.780;25.948;2023-04-15T02:22:01;69.10;;;63.10;;
45274;SDS011;31019;43.780;25.948;2023-04-15T02:24:29;82.32;;;75.30;;
45274;SDS011;31019;43.780;25.948;2023-04-15T02:26:56;77.85;;;71.13;;
45274;SDS011;31019;43.780;25.948;2023-04-15T02:29:22;82.55;;;75.25;;
45274;SDS011;31019;43.780;25.948;2023-04-15T02:31:49;79.97;;;72.57;;
45274;SDS011;31019;43.780;25.948;2023-04-15T02:34:18;90.18;;;82.47;;
45274;SDS011;31019;43.780;25.948;2023-04-15T02:36:44;107.70;;;99.10;;
45274;SDS011;31019;43.780;25.948;2023-04-15T02:39:12;92.35;;;84.55;;
45274;SDS011;31019;43.780;25.948;2023-04-15T02:41:41;82.35;;;75.13;;
45274;SDS011;31019;43.780;25.948;2023-04-15T02:44:08;86.95;;;79.43;;
45274;SDS011;31019;43.780;25.948;2023-04-15T02:46:37;78.53;;;71.53;;
45274;SDS011;31019;43.780;25.948;2023-04-15T02:49:05;82.45;;;75.25;;
45274;SDS011;31019;43.780;25.948;2023-04-15T02:51:34;103.88;;;95.18;;
45274;SDS011;31019;43.780;25.948;2023-04-15T02:54:01;94.90;;;86.75;;
45274;SDS011;31019;43.780;25.948;2023-04-15T02:56:27;130.98;;;120.88;;
45274;SDS011;31019;43.780;25.948;2023-04-15T02:58:58;113.63;;;104.43;;
45274;SDS011;31019;43.780;25.948;2023-04-15T03:01:25;99.05;;;90.28;;
45274;SDS011;31019;43.780;25.948;2023-04-15T03:03:54;97.55;;;89.25;;
45274;SDS011;31019;43.780;25.948;2023-04-15T03:06:21;97.45;;;89.13;;
45274;SDS011;31019;43.780;25.948;2023-04-15T03:08:50;96.15;;;86.60;;
45274;SDS011;31019;43.780;25.948;2023-04-15T03:11:18;90.13;;;82.35;;
45274;SDS011;31019;43.780;25.948;2023-04-15T03:13:45;115.95;;;107.25;;
45274;SDS011;31019;43.780;25.948;2023-04-15T03:16:12;85.32;;;78.32;;
45274;SDS011;31019;43.780;25.948;2023-04-15T03:18:39;76.82;;;70.32;;
45274;SDS011;31019;43.780;25.948;2023-04-15T03:21:06;85.28;;;77.65;;
45274;SDS011;31019;43.780;25.948;2023-04-15T03:23:33;79.85;;;72.35;;
45274;SDS011;31019;43.780;25.948;2023-04-15T03:26:02;83.07;;;75.40;;
45274;SDS011;31019;43.780;25.948;2023-04-15T03:28:29;79.20;;;71.75;;
45274;SDS011;31019;43.780;25.948;2023-04-15T03:30:56;85.15;;;77.38;;
45274;SDS011;31019;43.780;25.948;2023-04-15T03:33:23;80.47;;;73.03;;
45274;SDS011;31019;43.780;25.948;2023-04-15T03:35:53;76.70;;;69.38;;
45274;SDS011;31019;43.780;25.948;2023-04-15T03:38:21;78.90;;;71.55;;
45274;SDS011;31019;43.780;25.948;2023-04-15T03:40:48;79.85;;;72.85;;
45274;SDS011;31019;43.780;25.948;2023-04-15T03:43:16;78.10;;;71.25;;
45274;SDS011;31019;43.780;25.948;2023-04-15T03:45:43;76.95;;;70.15;;
45274;SDS011;31019;43.780;25.948;2023-04-15T03:48:10;73.95;;;67.30;;
45274;SDS011;31019;43.780;25.948;2023-04-15T03:50:37;75.30;;;68.82;;
45274;SDS011;31019;43.780;25.948;2023-04-15T03:53:03;69.93;;;63.58;;
45274;SDS011;31019;43.780;25.948;2023-04-15T03:55:30;70.68;;;64.47;;
45274;SDS011;31019;43.780;25.948;2023-04-15T03:57:57;72.75;;;66.25;;
45274;SDS011;31019;43.780;25.948;2023-04-15T04:00:25;90.18;;;82.85;;
45274;SDS011;31019;43.780;25.948;2023-04-15T04:02:52;77.05;;;70.00;;
45274;SDS011;31019;43.780;25.948;2023-04-15T04:05:19;79.05;;;72.07;;
45274;SDS011;31019;43.780;25.948;2023-04-15T04:07:46;77.60;;;70.75;;
45274;SDS011;31019;43.780;25.948;2023-04-15T04:10:13;76.80;;;69.65;;
45274;SDS011;31019;43.780;25.948;2023-04-15T04:12:40;82.40;;;75.00;;
45274;SDS011;31019;43.780;25.948;2023-04-15T04:15:07;82.53;;;75.13;;
45274;SDS011;31019;43.780;25.948;2023-04-15T04:17:35;78.05;;;70.65;;
45274;SDS011;31019;43.780;25.948;2023-04-15T04:20:02;82.88;;;75.40;;
45274;SDS011;31019;43.780;25.948;2023-04-15T04:22:29;85.47;;;77.68;;
45274;SDS011;31019;43.780;25.948;2023-04-15T04:24:56;89.43;;;81.60;;
45274;SDS011;31019;43.780;25.948;2023-04-15T04:27:24;86.57;;;78.85;;
45274;SDS011;31019;43.780;25.948;2023-04-15T04:29:51;82.65;;;75.45;;
45274;SDS011;31019;43.780;25.948;2023-04-15T04:32:18;82.03;;;74.82;;
45274;SDS011;31019;43.780;25.948;2023-04-15T04:34:46;97.60;;;89.40;;
45274;SDS011;31019;43.780;25.948;2023-04-15T04:37:13;100.47;;;91.60;;
45274;SDS011;31019;43.780;25.948;2023-04-15T04:39:40;99.13;;;89.25;;
45274;SDS011;31019;43.780;25.948;2023-04-15T04:42:07;103.32;;;93.15;;
45274;SDS011;31019;43.780;25.948;2023-04-15T04:44:34;99.00;;;89.70;;
45274;SDS011;31019;43.780;25.948;2023-04-15T04:47:01;91.95;;;83.82;;
45274;SDS011;31019;43.780;25.948;2023-04-15T04:49:28;91.40;;;83.15;;
45274;SDS011;31019;43.780;25.948;2023-04-15T04:51:56;88.60;;;80.60;;
45274;SDS011;31019;43.780;25.948;2023-04-15T04:54:23;89.90;;;82.25;;
45274;SDS011;31019;43.780;25.948;2023-04-15T04:56:51;87.80;;;80.43;;
45274;SDS011;31019;43.780;25.948;2023-04-15T04:59:18;90.88;;;83.35;;
45274;SDS011;31019;43.780;25.948;2023-04-15T05:01:45;96.43;;;88.40;;
45274;SDS011;31019;43.780;25.948;2023-04-15T05:04:12;89.43;;;81.10;;
45274;SDS011;31019;43.780;25.948;2023-04-15T05:06:39;87.57;;;79.88;;
45274;SDS011;31019;43.780;25.948;2023-04-15T05:09:07;91.03;;;83.32;;
45274;SDS011;31019;43.780;25.948;2023-04-15T05:11:34;86.38;;;78.70;;
45274;SDS011;31019;43.780;25.948;2023-04-15T05:14:01;92.43;;;84.50;;
45274;SDS011;31019;43.780;25.948;2023-04-15T05:16:28;86.50;;;79.00;;
45274;SDS011;31019;43.780;25.948;2023-04-15T05:18:55;88.18;;;81.07;;
45274;SDS011;31019;43.780;25.948;2023-04-15T05:21:24;91.15;;;83.75;;
45274;SDS011;31019;43.780;25.948;2023-04-15T05:23:51;89.65;;;82.68;;
45274;SDS011;31019;43.780;25.948;2023-04-15T05:26:20;87.38;;;80.57;;
45274;SDS011;31019;43.780;25.948;2023-04-15T05:28:48;92.05;;;84.30;;
45274;SDS011;31019;43.780;25.948;2023-04-15T05:31:15;95.38;;;87.43;;
45274;SDS011;31019;43.780;25.948;2023-04-15T05:33:42;87.80;;;81.00;;
45274;SDS011;31019;43.780;25.948;2023-04-15T05:36:09;88.10;;;81.45;;
45274;SDS011;31019;43.780;25.948;2023-04-15T05:38:36;80.35;;;73.80;;
45274;SDS011;31019;43.780;25.948;2023-04-15T05:41:03;81.97;;;75.30;;
45274;SDS011;31019;43.780;25.948;2023-04-15T05:43:31;84.90;;;78.10;;
45274;SDS011;31019;43.780;25.948;2023-04-15T05:45:58;99.88;;;91.97;;
45274;SDS011;31019;43.780;25.948;2023-04-15T05:48:25;104.05;;;95.68;;
45274;SDS011;31019;43.780;25.948;2023-04-15T05:50:54;103.07;;;94.85;;
45274;SDS011;31019;43.780;25.948;2023-04-15T05:53:21;104.95;;;96.55;;
45274;SDS011;31019;43.780;25.948;2023-04-15T05:55:48;101.35;;;93.43;;
45274;SDS011;31019;43.780;25.948;2023-04-15T05:58:15;98.88;;;91.20;;
45274;SDS011;31019;43.780;25.948;2023-04-15T06:00:43;95.90;;;88.68;;
45274;SDS011;31019;43.780;25.948;2023-04-15T06:03:10;103.22;;;95.63;;
45274;SDS011;31019;43.780;25.948;2023-04-15T06:05:37;93.88;;;86.72;;
45274;SDS011;31019;43.780;25.948;2023-04-15T06:08:05;92.95;;;85.65;;
45274;SDS011;31019;43.780;25.948;2023-04-15T06:10:33;92.00;;;85.10;;
45274;SDS011;31019;43.780;25.948;2023-04-15T06:13:00;87.15;;;80.45;;
45274;SDS011;31019;43.780;25.948;2023-04-15T06:15:27;90.30;;;83.40;;
45274;SDS011;31019;43.780;25.948;2023-04-15T06:17:56;88.90;;;82.45;;
45274;SDS011;31019;43.780;25.948;2023-04-15T06:20:22;86.32;;;79.75;;
45274;SDS011;31019;43.780;25.948;2023-04-15T06:22:49;90.10;;;83.57;;
45274;SDS011;31019;43.780;25.948;2023-04-15T06:25:17;87.32;;;80.88;;
45274;SDS011;31019;43.780;25.948;2023-04-15T06:27:44;89.78;;;82.93;;
45274;SDS011;31019;43.780;25.948;2023-04-15T06:30:10;91.63;;;84.95;;
45274;SDS011;31019;43.780;25.948;2023-04-15T06:32:37;85.72;;;79.40;;
45274;SDS011;31019;43.780;25.948;2023-04-15T06:35:06;69.10;;;63.70;;
45274;SDS011;31019;43.780;25.948;2023-04-15T06:37:33;66.85;;;61.88;;
45274;SDS011;31019;43.780;25.948;2023-04-15T06:40:00;64.13;;;59.33;;
45274;SDS011;31019;43.780;25.948;2023-04-15T06:42:29;65.20;;;60.08;;
45274;SDS011;31019;43.780;25.948;2023-04-15T06:44:56;55.45;;;51.15;;
45274;SDS011;31019;43.780;25.948;2023-04-15T06:47:23;36.10;;;33.15;;
45274;SDS011;31019;43.780;25.948;2023-04-15T06:49:50;35.80;;;33.03;;
45274;SDS011;31019;43.780;25.948;2023-04-15T06:52:18;37.88;;;35.05;;
45274;SDS011;31019;43.780;25.948;2023-04-15T06:54:45;36.30;;;33.40;;
45274;SDS011;31019;43.780;25.948;2023-04-15T06:57:12;37.03;;;33.85;;
45274;SDS011;31019;43.780;25.948;2023-04-15T06:59:39;35.42;;;32.65;;
45274;SDS011;31019;43.780;25.948;2023-04-15T07:02:07;33.88;;;31.00;;
45274;SDS011;31019;43.780;25.948;2023-04-15T07:04:37;32.65;;;29.83;;
45274;SDS011;31019;43.780;25.948;2023-04-15T07:07:04;33.13;;;30.33;;
45274;SDS011;31019;43.780;25.948;2023-04-15T07:09:33;33.60;;;30.88;;
45274;SDS011;31019;43.780;25.948;2023-04-15T07:12:00;31.15;;;28.63;;
45274;SDS011;31019;43.780;25.948;2023-04-15T07:14:27;30.05;;;27.55;;
45274;SDS011;31019;43.780;25.948;2023-04-15T07:16:54;28.35;;;25.95;;
45274;SDS011;31019;43.780;25.948;2023-04-15T07:19:21;33.03;;;30.20;;
45274;SDS011;31019;43.780;25.948;2023-04-15T07:21:48;29.70;;;27.38;;
45274;SDS011;31019;43.780;25.948;2023-04-15T07:24:15;27.67;;;25.58;;
45274;SDS011;31019;43.780;25.948;2023-04-15T07:26:45;24.10;;;21.90;;
45274;SDS011;31019;43.780;25.948;2023-04-15T07:29:12;23.83;;;22.02;;
45274;SDS011;31019;43.780;25.948;2023-04-15T07:31:39;25.60;;;23.70;;
45274;SDS011;31019;43.780;25.948;2023-04-15T07:34:06;22.70;;;21.20;;
45274;SDS011;31019;43.780;25.948;2023-04-15T07:36:33;22.60;;;20.60;;
45274;SDS011;31019;43.780;25.948;2023-04-15T07:39:01;25.77;;;23.70;;
45274;SDS011;31019;43.780;25.948;2023-04-15T07:41:28;26.70;;;24.60;;
45274;SDS011;31019;43.780;25.948;2023-04-15T07:43:57;31.42;;;28.83;;
45274;SDS011;31019;43.780;25.948;2023-04-15T07:46:24;27.70;;;25.52;;
45274;SDS011;31019;43.780;25.948;2023-04-15T07:48:53;26.13;;;24.23;;
45274;SDS011;31019;43.780;25.948;2023-04-15T07:51:20;30.73;;;28.13;;
45274;SDS011;31019;43.780;25.948;2023-04-15T07:53:47;33.67;;;30.83;;
45274;SDS011;31019;43.780;25.948;2023-04-15T07:56:14;31.90;;;29.17;;
45274;SDS011;31019;43.780;25.948;2023-04-15T07:58:41;28.17;;;25.98;;
45274;SDS011;31019;43.780;25.948;2023-04-15T08:01:10;30.05;;;27.75;;
45274;SDS011;31019;43.780;25.948;2023-04-15T08:03:37;28.33;;;26.05;;
45274;SDS011;31019;43.780;25.948;2023-04-15T08:06:04;28.55;;;26.45;;
45274;SDS011;31019;43.780;25.948;2023-04-15T08:08:32;25.35;;;23.48;;
45274;SDS011;31019;43.780;25.948;2023-04-15T08:10:58;22.75;;;20.90;;
45274;SDS011;31019;43.780;25.948;2023-04-15T08:13:25;27.63;;;25.63;;
45274;SDS011;31019;43.780;25.948;2023-04-15T09:05:16;20.95;;;19.25;;
45274;SDS011;31019;43.780;25.948;2023-04-15T09:10:37;20.50;;;18.90;;
45274;SDS011;31019;43.780;25.948;2023-04-15T09:11:40;21.17;;;19.38;;
45274;SDS011;31019;43.780;25.948;2023-04-15T09:14:51;20.67;;;19.10;;
45274;SDS011;31019;43.780;25.948;2023-04-15T09:18:02;20.63;;;18.88;;
45274;SDS011;31019;43.780;25.948;2023-04-15T09:20:49;20.50;;;18.88;;
45274;SDS011;31019;43.780;25.948;2023-04-15T09:28:22;20.05;;;18.63;;
45274;SDS011;31019;43.780;25.948;2023-04-15T09:32:15;18.80;;;17.17;;
45274;SDS011;31019;43.780;25.948;2023-04-15T09:37:54;19.70;;;18.00;;
45274;SDS011;31019;43.780;25.948;2023-04-15T09:41:22;20.13;;;18.33;;
45274;SDS011;31019;43.780;25.948;2023-04-15T09:44:25;19.98;;;18.38;;
45274;SDS011;31019;43.780;25.948;2023-04-15T09:53:52;19.35;;;17.83;;
45274;SDS011;31019;43.780;25.948;2023-04-15T09:56:50;22.08;;;20.10;;
45274;SDS011;31019;43.780;25.948;2023-04-15T10:02:37;21.52;;;19.92;;
45274;SDS011;31019;43.780;25.948;2023-04-15T10:03:40;20.10;;;18.40;;
45274;SDS011;31019;43.780;25.948;2023-04-15T10:06:33;19.90;;;18.10;;
45274;SDS011;31019;43.780;25.948;2023-04-15T10:13:13;19.33;;;17.85;;
45274;SDS011;31019;43.780;25.948;2023-04-15T10:16:12;20.98;;;19.17;;
45274;SDS011;31019;43.780;25.948;2023-04-15T10:19:00;20.95;;;19.20;;
45274;SDS011;31019;43.780;25.948;2023-04-15T10:25:47;21.02;;;19.20;;
45274;SDS011;31019;43.780;25.948;2023-04-15T10:31:57;21.17;;;19.48;;
45274;SDS011;31019;43.780;25.948;2023-04-15T10:35:15;19.58;;;17.90;;
45274;SDS011;31019;43.780;25.948;2023-04-15T10:41:25;20.63;;;19.00;;
45274;SDS011;31019;43.780;25.948;2023-04-15T10:44:25;19.95;;;18.30;;
45274;SDS011;31019;43.780;25.948;2023-04-15T10:50:46;21.55;;;19.83;;
45274;SDS011;31019;43.780;25.948;2023-04-15T10:53:47;20.75;;;19.05;;
45274;SDS011;31019;43.780;25.948;2023-04-15T10:56:51;19.48;;;17.90;;
45274;SDS011;31019;43.780;25.948;2023-04-15T11:00:09;20.38;;;18.52;;
45274;SDS011;31019;43.780;25.948;2023-04-15T11:03:41;19.35;;;17.75;;
45274;SDS011;31019;43.780;25.948;2023-04-15T11:07:11;21.40;;;19.38;;
45274;SDS011;31019;43.780;25.948;2023-04-15T11:14:24;19.50;;;17.90;;
45274;SDS011;31019;43.780;25.948;2023-04-15T11:16:58;19.42;;;17.75;;
45274;SDS011;31019;43.780;25.948;2023-04-15T11:19:56;19.40;;;17.80;;
45274;SDS011;31019;43.780;25.948;2023-04-15T11:22:55;19.70;;;18.00;;
45274;SDS011;31019;43.780;25.948;2023-04-15T11:28:46;20.10;;;18.50;;
45274;SDS011;31019;43.780;25.948;2023-04-15T11:31:54;19.80;;;18.00;;
45274;SDS011;31019;43.780;25.948;2023-04-15T11:34:56;20.83;;;18.92;;
45274;SDS011;31019;43.780;25.948;2023-04-15T11:38:17;20.50;;;18.80;;
45274;SDS011;31019;43.780;25.948;2023-04-15T11:41:21;21.02;;;19.13;;
45274;SDS011;31019;43.780;25.948;2023-04-15T11:44:17;21.42;;;19.20;;
45274;SDS011;31019;43.780;25.948;2023-04-15T11:50:41;20.13;;;18.10;;
45274;SDS011;31019;43.780;25.948;2023-04-15T11:53:58;19.83;;;17.90;;
45274;SDS011;31019;43.780;25.948;2023-04-15T11:56:51;19.63;;;17.77;;
45274;SDS011;31019;43.780;25.948;2023-04-15T12:02:35;21.38;;;19.40;;
45274;SDS011;31019;43.780;25.948;2023-04-15T12:05:27;20.92;;;19.13;;
45274;SDS011;31019;43.780;25.948;2023-04-15T12:11:46;19.63;;;17.92;;
45274;SDS011;31019;43.780;25.948;2023-04-15T12:14:42;21.45;;;19.85;;
45274;SDS011;31019;43.780;25.948;2023-04-15T12:20:52;23.27;;;21.45;;
45274;SDS011;31019;43.780;25.948;2023-04-15T12:23:54;19.83;;;18.13;;
45274;SDS011;31019;43.780;25.948;2023-04-15T12:30:05;21.13;;;19.30;;
45274;SDS011;31019;43.780;25.948;2023-04-15T12:32:34;19.70;;;18.00;;
45274;SDS011;31019;43.780;25.948;2023-04-15T12:38:13;20.63;;;19.02;;
45274;SDS011;31019;43.780;25.948;2023-04-15T12:41:07;20.65;;;18.95;;
45274;SDS011;31019;43.780;25.948;2023-04-15T12:44:18;19.38;;;17.67;;
45274;SDS011;31019;43.780;25.948;2023-04-15T12:47:10;20.98;;;19.27;;
45274;SDS011;31019;43.780;25.948;2023-04-15T12:53:12;19.73;;;17.73;;
45274;SDS011;31019;43.780;25.948;2023-04-15T12:56:08;19.45;;;17.85;;
45274;SDS011;31019;43.780;25.948;2023-04-15T13:08:49;20.95;;;19.05;;
45274;SDS011;31019;43.780;25.948;2023-04-15T13:11:28;21.23;;;19.42;;
45274;SDS011;31019;43.780;25.948;2023-04-15T13:14:11;20.17;;;18.38;;
45274;SDS011;31019;43.780;25.948;2023-04-15T13:17:16;20.63;;;18.85;;
45274;SDS011;31019;43.780;25.948;2023-04-15T13:19:46;20.90;;;19.20;;
45274;SDS011;31019;43.780;25.948;2023-04-15T13:23:01;20.63;;;18.83;;
45274;SDS011;31019;43.780;25.948;2023-04-15T13:32:31;21.58;;;19.67;;
45274;SDS011;31019;43.780;25.948;2023-04-15T13:35:25;21.40;;;19.50;;
45274;SDS011;31019;43.780;25.948;2023-04-15T13:38:37;25.52;;;23.25;;
45274;SDS011;31019;43.780;25.948;2023-04-15T13:41:28;23.48;;;21.48;;
45274;SDS011;31019;43.780;25.948;2023-04-15T13:44:46;30.23;;;27.52;;
45274;SDS011;31019;43.780;25.948;2023-04-15T13:53:49;21.25;;;19.45;;
45274;SDS011;31019;43.780;25.948;2023-04-15T13:56:27;23.00;;;21.08;;
45274;SDS011;31019;43.780;25.948;2023-04-15T13:59:26;23.10;;;21.00;;
45274;SDS011;31019;43.780;25.948;2023-04-15T14:02:32;20.98;;;19.17;;
45274;SDS011;31019;43.780;25.948;2023-04-15T14:05:51;21.92;;;20.17;;
45274;SDS011;31019;43.780;25.948;2023-04-15T14:11:38;20.90;;;19.05;;
45274;SDS011;31019;43.780;25.948;2023-04-15T14:14:48;20.55;;;18.90;;
45274;SDS011;31019;43.780;25.948;2023-04-15T14:21:13;22.02;;;20.13;;
45274;SDS011;31019;43.780;25.948;2023-04-15T14:24:13;20.48;;;18.70;;
45274;SDS011;31019;43.780;25.948;2023-04-15T14:27:36;21.23;;;19.23;;
45274;SDS011;31019;43.780;25.948;2023-04-15T14:30:42;21.10;;;19.30;;
45274;SDS011;31019;43.780;25.948;2023-04-15T14:33:52;22.55;;;20.40;;
45274;SDS011;31019;43.780;25.948;2023-04-15T14:37:08;20.10;;;18.42;;
45274;SDS011;31019;43.780;25.948;2023-04-15T14:40:14;19.45;;;17.80;;
45274;SDS011;31019;43.780;25.948;2023-04-15T14:43:11;20.73;;;18.92;;
45274;SDS011;31019;43.780;25.948;2023-04-15T14:46:24;20.13;;;18.55;;
45274;SDS011;31019;43.780;25.948;2023-04-15T14:49:23;19.77;;;18.08;;
45274;SDS011;31019;43.780;25.948;2023-04-15T14:52:15;20.02;;;18.30;;
45274;SDS011;31019;43.780;25.948;2023-04-15T14:55:14;19.75;;;18.05;;
45274;SDS011;31019;43.780;25.948;2023-04-15T14:58:01;20.70;;;18.83;;
45274;SDS011;31019;43.780;25.948;2023-04-15T15:01:07;22.17;;;20.00;;
45274;SDS011;31019;43.780;25.948;2023-04-15T15:04:12;31.17;;;28.15;;
45274;SDS011;31019;43.780;25.948;2023-04-15T15:06:56;25.55;;;23.42;;
45274;SDS011;31019;43.780;25.948;2023-04-15T15:10:00;22.50;;;20.77;;
45274;SDS011;31019;43.780;25.948;2023-04-15T15:13:05;24.52;;;22.52;;
45274;SDS011;31019;43.780;25.948;2023-04-15T15:15:33;21.40;;;19.70;;
45274;SDS011;31019;43.780;25.948;2023-04-15T15:21:09;19.38;;;17.88;;
45274;SDS011;31019;43.780;25.948;2023-04-15T15:23:43;19.85;;;18.23;;
45274;SDS011;31019;43.780;25.948;2023-04-15T15:26:10;23.42;;;21.30;;
45274;SDS011;31019;43.780;25.948;2023-04-15T15:28:39;21.38;;;19.30;;
45274;SDS011;31019;43.780;25.948;2023-04-15T15:31:06;21.73;;;20.23;;
45274;SDS011;31019;43.780;25.948;2023-04-15T15:33:33;21.33;;;19.63;;
45274;SDS011;31019;43.780;25.948;2023-04-15T15:36:00;21.05;;;19.25;;
45274;SDS011;31019;43.780;25.948;2023-04-15T15:38:27;21.45;;;19.55;;
45274;SDS011;31019;43.780;25.948;2023-04-15T15:40:54;20.52;;;18.75;;
45274;SDS011;31019;43.780;25.948;2023-04-15T15:46:45;22.30;;;20.58;;
45274;SDS011;31019;43.780;25.948;2023-04-15T15:49:12;21.02;;;19.05;;
45274;SDS011;31019;43.780;25.948;2023-04-15T15:51:39;19.60;;;17.90;;
45274;SDS011;31019;43.780;25.948;2023-04-15T15:57:30;20.02;;;18.05;;
45274;SDS011;31019;43.780;25.948;2023-04-15T16:00:26;21.15;;;19.20;;
45274;SDS011;31019;43.780;25.948;2023-04-15T16:10:09;23.33;;;21.45;;
45274;SDS011;31019;43.780;25.948;2023-04-15T16:13:46;22.13;;;19.85;;
45274;SDS011;31019;43.780;25.948;2023-04-15T16:16:28;24.23;;;22.13;;
45274;SDS011;31019;43.780;25.948;2023-04-15T16:19:29;22.25;;;20.05;;
45274;SDS011;31019;43.780;25.948;2023-04-15T16:22:02;21.38;;;19.15;;
45274;SDS011;31019;43.780;25.948;2023-04-15T16:25:20;21.55;;;19.50;;
45274;SDS011;31019;43.780;25.948;2023-04-15T16:31:32;20.23;;;18.42;;
45274;SDS011;31019;43.780;25.948;2023-04-15T16:34:04;21.48;;;19.48;;
45274;SDS011;31019;43.780;25.948;2023-04-15T16:36:34;22.05;;;20.13;;
45274;SDS011;31019;43.780;25.948;2023-04-15T16:42:22;22.65;;;20.50;;
45274;SDS011;31019;43.780;25.948;2023-04-15T16:48:01;24.38;;;21.83;;
45274;SDS011;31019;43.780;25.948;2023-04-15T16:50:48;24.38;;;21.65;;
45274;SDS011;31019;43.780;25.948;2023-04-15T16:53:26;31.17;;;22.27;;
45274;SDS011;31019;43.780;25.948;2023-04-15T16:55:53;22.10;;;20.10;;
45274;SDS011;31019;43.780;25.948;2023-04-15T16:58:22;21.35;;;19.27;;
45274;SDS011;31019;43.780;25.948;2023-04-15T17:00:49;21.92;;;19.77;;
45274;SDS011;31019;43.780;25.948;2023-04-15T17:03:16;26.40;;;23.92;;
45274;SDS011;31019;43.780;25.948;2023-04-15T17:05:43;27.60;;;25.20;;
45274;SDS011;31019;43.780;25.948;2023-04-15T17:08:10;26.20;;;23.77;;
45274;SDS011;31019;43.780;25.948;2023-04-15T17:10:37;77.03;;;58.30;;
45274;SDS011;31019;43.780;25.948;2023-04-15T17:13:33;44.17;;;39.42;;
45274;SDS011;31019;43.780;25.948;2023-04-15T17:16:27;46.97;;;41.60;;
45274;SDS011;31019;43.780;25.948;2023-04-15T17:19:07;45.13;;;40.33;;
45274;SDS011;31019;43.780;25.948;2023-04-15T17:21:34;39.33;;;35.63;;
45274;SDS011;31019;43.780;25.948;2023-04-15T17:24:45;30.40;;;27.83;;
45274;SDS011;31019;43.780;25.948;2023-04-15T17:26:56;28.40;;;25.75;;
45274;SDS011;31019;43.780;25.948;2023-04-15T17:29:30;26.33;;;23.48;;
45274;SDS011;31019;43.780;25.948;2023-04-15T17:31:58;26.48;;;23.67;;
45274;SDS011;31019;43.780;25.948;2023-04-15T17:34:26;56.90;;;38.00;;
45274;SDS011;31019;43.780;25.948;2023-04-15T17:36:53;26.80;;;23.90;;
45274;SDS011;31019;43.780;25.948;2023-04-15T17:42:02;109.90;;;54.65;;
45274;SDS011;31019;43.780;25.948;2023-04-15T17:44:30;113.32;;;56.38;;
45274;SDS011;31019;43.780;25.948;2023-04-15T17:46:57;88.32;;;44.92;;
45274;SDS011;31019;43.780;25.948;2023-04-15T17:49:24;55.80;;;32.42;;
45274;SDS011;31019;43.780;25.948;2023-04-15T17:51:52;51.83;;;33.83;;
45274;SDS011;31019;43.780;25.948;2023-04-15T17:54:20;60.45;;;34.30;;
45274;SDS011;31019;43.780;25.948;2023-04-15T17:56:49;69.75;;;37.67;;